sensor_id;sensor_type;location;lat;lon;timestamp;P1;durP1;ratioP1;P2;durP2;ratioP2
46765;SDS011;32527;51.986;5.842;2023-06-04T00:00:55;93.60;;;89.13;;
46765;SDS011;32527;51.986;5.842;2023-06-04T00:03:23;78.80;;;75.15;;
46765;SDS011;32527;51.986;5.842;2023-06-04T00:05:49;81.60;;;77.80;;
46765;SDS011;32527;51.986;5.842;2023-06-04T00:08:15;79.15;;;75.45;;
46765;SDS011;32527;51.986;5.842;2023-06-04T00:10:42;74.32;;;70.65;;
46765;SDS011;32527;51.986;5.842;2023-06-04T00:13:08;80.55;;;76.72;;
46765;SDS011;32527;51.986;5.842;2023-06-04T00:15:34;64.57;;;61.58;;
46765;SDS011;32527;51.986;5.842;2023-06-04T00:18:00;77.75;;;74.15;;
46765;SDS011;32527;51.986;5.842;2023-06-04T00:20:26;74.65;;;71.03;;
46765;SDS011;32527;51.986;5.842;2023-06-04T00:22:52;80.95;;;77.15;;
46765;SDS011;32527;51.986;5.842;2023-06-04T00:25:18;82.55;;;78.72;;
46765;SDS011;32527;51.986;5.842;2023-06-04T00:27:44;73.65;;;70.03;;
46765;SDS011;32527;51.986;5.842;2023-06-04T00:30:10;65.97;;;62.28;;
46765;SDS011;32527;51.986;5.842;2023-06-04T00:32:36;73.47;;;70.07;;
46765;SDS011;32527;51.986;5.842;2023-06-04T00:35:03;64.95;;;61.95;;
46765;SDS011;32527;51.986;5.842;2023-06-04T00:37:29;74.22;;;70.78;;
46765;SDS011;32527;51.986;5.842;2023-06-04T00:39:55;63.35;;;60.38;;
46765;SDS011;32527;51.986;5.842;2023-06-04T00:42:21;63.20;;;60.22;;
46765;SDS011;32527;51.986;5.842;2023-06-04T00:44:47;64.57;;;61.58;;
46765;SDS011;32527;51.986;5.842;2023-06-04T00:47:14;60.22;;;57.45;;
46765;SDS011;32527;51.986;5.842;2023-06-04T00:49:40;82.63;;;78.50;;
46765;SDS011;32527;51.986;5.842;2023-06-04T00:52:07;64.60;;;61.55;;
46765;SDS011;32527;51.986;5.842;2023-06-04T00:54:35;55.08;;;52.47;;
46765;SDS011;32527;51.986;5.842;2023-06-04T00:57:01;60.60;;;57.58;;
46765;SDS011;32527;51.986;5.842;2023-06-04T00:59:28;50.80;;;48.13;;
46765;SDS011;32527;51.986;5.842;2023-06-04T01:04:26;54.90;;;52.30;;
46765;SDS011;32527;51.986;5.842;2023-06-04T01:06:59;48.08;;;45.83;;
46765;SDS011;32527;51.986;5.842;2023-06-04T01:09:28;43.88;;;41.83;;
46765;SDS011;32527;51.986;5.842;2023-06-04T01:11:54;46.70;;;44.58;;
46765;SDS011;32527;51.986;5.842;2023-06-04T01:14:23;45.80;;;43.50;;
46765;SDS011;32527;51.986;5.842;2023-06-04T01:16:52;37.53;;;35.70;;
46765;SDS011;32527;51.986;5.842;2023-06-04T01:22:43;38.05;;;36.30;;
46765;SDS011;32527;51.986;5.842;2023-06-04T01:25:34;31.50;;;29.95;;
46765;SDS011;32527;51.986;5.842;2023-06-04T01:28:05;30.55;;;29.10;;
46765;SDS011;32527;51.986;5.842;2023-06-04T01:30:34;34.83;;;32.88;;
46765;SDS011;32527;51.986;5.842;2023-06-04T01:33:07;30.70;;;29.27;;
46765;SDS011;32527;51.986;5.842;2023-06-04T01:35:34;30.73;;;29.15;;
46765;SDS011;32527;51.986;5.842;2023-06-04T01:38:00;37.03;;;35.30;;
46765;SDS011;32527;51.986;5.842;2023-06-04T01:40:26;34.58;;;32.95;;
46765;SDS011;32527;51.986;5.842;2023-06-04T01:42:53;33.80;;;32.15;;
46765;SDS011;32527;51.986;5.842;2023-06-04T01:45:20;31.80;;;30.20;;
46765;SDS011;32527;51.986;5.842;2023-06-04T01:47:51;29.73;;;28.25;;
46765;SDS011;32527;51.986;5.842;2023-06-04T01:50:17;32.80;;;31.25;;
46765;SDS011;32527;51.986;5.842;2023-06-04T01:52:43;60.10;;;57.20;;
46765;SDS011;32527;51.986;5.842;2023-06-04T01:55:10;42.63;;;40.60;;
46765;SDS011;32527;51.986;5.842;2023-06-04T01:57:37;30.65;;;29.20;;
46765;SDS011;32527;51.986;5.842;2023-06-04T02:00:03;32.10;;;30.52;;
46765;SDS011;32527;51.986;5.842;2023-06-04T02:02:42;28.17;;;26.70;;
46765;SDS011;32527;51.986;5.842;2023-06-04T02:05:09;29.50;;;28.02;;
46765;SDS011;32527;51.986;5.842;2023-06-04T02:07:36;26.50;;;25.17;;
46765;SDS011;32527;51.986;5.842;2023-06-04T02:12:37;24.55;;;23.38;;
46765;SDS011;32527;51.986;5.842;2023-06-04T02:15:03;40.72;;;38.72;;
46765;SDS011;32527;51.986;5.842;2023-06-04T02:17:30;24.02;;;22.80;;
46765;SDS011;32527;51.986;5.842;2023-06-04T02:20:02;24.05;;;22.85;;
46765;SDS011;32527;51.986;5.842;2023-06-04T02:22:29;23.83;;;22.58;;
46765;SDS011;32527;51.986;5.842;2023-06-04T02:24:55;23.17;;;21.73;;
46765;SDS011;32527;51.986;5.842;2023-06-04T02:27:21;26.17;;;24.80;;
46765;SDS011;32527;51.986;5.842;2023-06-04T02:29:47;22.58;;;21.42;;
46765;SDS011;32527;51.986;5.842;2023-06-04T02:32:13;24.63;;;23.42;;
46765;SDS011;32527;51.986;5.842;2023-06-04T02:34:39;22.38;;;21.05;;
46765;SDS011;32527;51.986;5.842;2023-06-04T02:37:06;18.40;;;17.30;;
46765;SDS011;32527;51.986;5.842;2023-06-04T02:39:32;19.27;;;18.27;;
46765;SDS011;32527;51.986;5.842;2023-06-04T02:41:58;16.83;;;15.93;;
46765;SDS011;32527;51.986;5.842;2023-06-04T02:44:24;17.00;;;16.10;;
46765;SDS011;32527;51.986;5.842;2023-06-04T02:46:50;21.60;;;20.40;;
46765;SDS011;32527;51.986;5.842;2023-06-04T02:49:17;20.30;;;19.30;;
46765;SDS011;32527;51.986;5.842;2023-06-04T02:51:43;17.60;;;16.73;;
46765;SDS011;32527;51.986;5.842;2023-06-04T02:54:09;21.38;;;20.27;;
46765;SDS011;32527;51.986;5.842;2023-06-04T02:56:36;18.58;;;17.63;;
46765;SDS011;32527;51.986;5.842;2023-06-04T02:59:02;18.30;;;17.38;;
46765;SDS011;32527;51.986;5.842;2023-06-04T03:01:28;17.55;;;16.65;;
46765;SDS011;32527;51.986;5.842;2023-06-04T03:03:55;14.85;;;13.95;;
46765;SDS011;32527;51.986;5.842;2023-06-04T03:06:22;20.75;;;19.35;;
46765;SDS011;32527;51.986;5.842;2023-06-04T03:08:49;15.63;;;14.55;;
46765;SDS011;32527;51.986;5.842;2023-06-04T03:11:15;15.30;;;14.40;;
46765;SDS011;32527;51.986;5.842;2023-06-04T03:13:41;13.20;;;12.48;;
46765;SDS011;32527;51.986;5.842;2023-06-04T03:16:07;19.30;;;18.20;;
46765;SDS011;32527;51.986;5.842;2023-06-04T03:18:37;31.55;;;29.98;;
46765;SDS011;32527;51.986;5.842;2023-06-04T03:21:04;15.45;;;14.55;;
46765;SDS011;32527;51.986;5.842;2023-06-04T03:23:30;15.70;;;14.85;;
46765;SDS011;32527;51.986;5.842;2023-06-04T03:25:56;16.92;;;16.05;;
46765;SDS011;32527;51.986;5.842;2023-06-04T03:28:22;14.00;;;13.23;;
46765;SDS011;32527;51.986;5.842;2023-06-04T03:30:48;16.70;;;15.48;;
46765;SDS011;32527;51.986;5.842;2023-06-04T03:33:16;18.67;;;16.60;;
46765;SDS011;32527;51.986;5.842;2023-06-04T03:35:42;17.58;;;16.48;;
46765;SDS011;32527;51.986;5.842;2023-06-04T03:38:08;17.27;;;16.33;;
46765;SDS011;32527;51.986;5.842;2023-06-04T03:40:35;15.85;;;15.00;;
46765;SDS011;32527;51.986;5.842;2023-06-04T03:43:02;14.25;;;13.43;;
46765;SDS011;32527;51.986;5.842;2023-06-04T03:45:32;16.17;;;15.32;;
46765;SDS011;32527;51.986;5.842;2023-06-04T03:47:58;12.95;;;12.13;;
46765;SDS011;32527;51.986;5.842;2023-06-04T03:50:26;16.00;;;15.15;;
46765;SDS011;32527;51.986;5.842;2023-06-04T03:52:53;15.43;;;14.57;;
46765;SDS011;32527;51.986;5.842;2023-06-04T03:55:20;19.60;;;18.50;;
46765;SDS011;32527;51.986;5.842;2023-06-04T03:57:48;17.50;;;16.50;;
46765;SDS011;32527;51.986;5.842;2023-06-04T04:00:14;17.88;;;16.85;;
46765;SDS011;32527;51.986;5.842;2023-06-04T04:02:44;14.45;;;13.65;;
46765;SDS011;32527;51.986;5.842;2023-06-04T04:05:20;23.05;;;21.83;;
46765;SDS011;32527;51.986;5.842;2023-06-04T04:07:47;15.60;;;14.75;;
46765;SDS011;32527;51.986;5.842;2023-06-04T04:10:16;14.27;;;13.50;;
46765;SDS011;32527;51.986;5.842;2023-06-04T04:12:42;14.57;;;13.68;;
46765;SDS011;32527;51.986;5.842;2023-06-04T04:15:08;17.70;;;16.75;;
46765;SDS011;32527;51.986;5.842;2023-06-04T04:17:35;15.13;;;14.27;;
46765;SDS011;32527;51.986;5.842;2023-06-04T04:20:01;16.58;;;15.32;;
46765;SDS011;32527;51.986;5.842;2023-06-04T04:22:31;11.82;;;10.98;;
46765;SDS011;32527;51.986;5.842;2023-06-04T04:24:58;18.10;;;17.00;;
46765;SDS011;32527;51.986;5.842;2023-06-04T04:27:24;24.90;;;23.63;;
46765;SDS011;32527;51.986;5.842;2023-06-04T04:29:51;18.25;;;17.05;;
46765;SDS011;32527;51.986;5.842;2023-06-04T04:32:20;22.33;;;21.08;;
46765;SDS011;32527;51.986;5.842;2023-06-04T04:34:51;32.15;;;29.98;;
46765;SDS011;32527;51.986;5.842;2023-06-04T04:37:22;20.90;;;19.75;;
46765;SDS011;32527;51.986;5.842;2023-06-04T04:39:51;35.03;;;33.25;;
46765;SDS011;32527;51.986;5.842;2023-06-04T04:42:18;27.70;;;26.05;;
46765;SDS011;32527;51.986;5.842;2023-06-04T04:44:46;29.10;;;27.58;;
46765;SDS011;32527;51.986;5.842;2023-06-04T04:47:15;28.98;;;27.55;;
46765;SDS011;32527;51.986;5.842;2023-06-04T04:49:41;34.03;;;32.22;;
46765;SDS011;32527;51.986;5.842;2023-06-04T04:52:07;28.38;;;27.00;;
46765;SDS011;32527;51.986;5.842;2023-06-04T04:54:35;34.60;;;32.90;;
46765;SDS011;32527;51.986;5.842;2023-06-04T04:57:01;43.53;;;41.28;;
46765;SDS011;32527;51.986;5.842;2023-06-04T04:59:27;44.80;;;42.50;;
46765;SDS011;32527;51.986;5.842;2023-06-04T05:01:56;45.88;;;43.75;;
46765;SDS011;32527;51.986;5.842;2023-06-04T05:04:22;54.47;;;51.50;;
46765;SDS011;32527;51.986;5.842;2023-06-04T05:06:48;42.88;;;40.83;;
46765;SDS011;32527;51.986;5.842;2023-06-04T05:09:14;61.75;;;58.90;;
46765;SDS011;32527;51.986;5.842;2023-06-04T05:11:41;60.60;;;57.72;;
46765;SDS011;32527;51.986;5.842;2023-06-04T05:14:07;68.15;;;64.97;;
46765;SDS011;32527;51.986;5.842;2023-06-04T05:16:34;75.05;;;71.45;;
46765;SDS011;32527;51.986;5.842;2023-06-04T05:19:04;95.85;;;91.32;;
46765;SDS011;32527;51.986;5.842;2023-06-04T05:21:34;156.00;;;148.32;;
46765;SDS011;32527;51.986;5.842;2023-06-04T05:24:03;194.07;;;184.48;;
46765;SDS011;32527;51.986;5.842;2023-06-04T05:26:33;264.05;;;250.55;;
46765;SDS011;32527;51.986;5.842;2023-06-04T05:29:05;290.02;;;275.17;;
46765;SDS011;32527;51.986;5.842;2023-06-04T05:31:35;332.92;;;315.15;;
46765;SDS011;32527;51.986;5.842;2023-06-04T05:34:05;351.13;;;332.05;;
46765;SDS011;32527;51.986;5.842;2023-06-04T05:36:33;370.25;;;350.23;;
46765;SDS011;32527;51.986;5.842;2023-06-04T05:39:02;372.63;;;352.73;;
46765;SDS011;32527;51.986;5.842;2023-06-04T05:41:35;384.83;;;363.80;;
46765;SDS011;32527;51.986;5.842;2023-06-04T05:44:02;382.83;;;361.65;;
46765;SDS011;32527;51.986;5.842;2023-06-04T05:46:28;393.90;;;372.45;;
46765;SDS011;32527;51.986;5.842;2023-06-04T05:48:55;420.65;;;396.27;;
46765;SDS011;32527;51.986;5.842;2023-06-04T05:51:23;506.83;;;475.15;;
46765;SDS011;32527;51.986;5.842;2023-06-04T05:53:49;523.47;;;490.10;;
46765;SDS011;32527;51.986;5.842;2023-06-04T05:56:16;541.58;;;505.77;;
46765;SDS011;32527;51.986;5.842;2023-06-04T05:58:42;581.13;;;541.20;;
46765;SDS011;32527;51.986;5.842;2023-06-04T06:01:09;608.90;;;565.88;;
46765;SDS011;32527;51.986;5.842;2023-06-04T06:03:36;617.75;;;573.78;;
46765;SDS011;32527;51.986;5.842;2023-06-04T06:06:02;615.90;;;572.30;;
46765;SDS011;32527;51.986;5.842;2023-06-04T06:08:30;605.60;;;562.30;;
46765;SDS011;32527;51.986;5.842;2023-06-04T06:10:56;608.30;;;565.33;;
46765;SDS011;32527;51.986;5.842;2023-06-04T06:13:22;584.95;;;543.30;;
46765;SDS011;32527;51.986;5.842;2023-06-04T06:15:48;611.28;;;567.03;;
46765;SDS011;32527;51.986;5.842;2023-06-04T06:18:14;595.70;;;553.70;;
46765;SDS011;32527;51.986;5.842;2023-06-04T06:20:40;556.80;;;517.13;;
46765;SDS011;32527;51.986;5.842;2023-06-04T06:23:07;576.60;;;535.15;;
46765;SDS011;32527;51.986;5.842;2023-06-04T06:25:36;578.80;;;537.72;;
46765;SDS011;32527;51.986;5.842;2023-06-04T06:28:10;559.70;;;520.13;;
46765;SDS011;32527;51.986;5.842;2023-06-04T06:30:36;525.25;;;489.80;;
46765;SDS011;32527;51.986;5.842;2023-06-04T06:33:02;517.80;;;483.85;;
46765;SDS011;32527;51.986;5.842;2023-06-04T06:35:28;513.35;;;478.75;;
46765;SDS011;32527;51.986;5.842;2023-06-04T06:37:54;507.33;;;473.55;;
46765;SDS011;32527;51.986;5.842;2023-06-04T06:40:20;490.27;;;458.70;;
46765;SDS011;32527;51.986;5.842;2023-06-04T06:42:49;471.65;;;442.20;;
46765;SDS011;32527;51.986;5.842;2023-06-04T06:45:16;456.65;;;428.05;;
46765;SDS011;32527;51.986;5.842;2023-06-04T06:47:43;471.27;;;441.73;;
46765;SDS011;32527;51.986;5.842;2023-06-04T06:50:09;459.15;;;430.73;;
46765;SDS011;32527;51.986;5.842;2023-06-04T06:52:36;430.65;;;404.73;;
46765;SDS011;32527;51.986;5.842;2023-06-04T06:55:03;428.50;;;402.48;;
46765;SDS011;32527;51.986;5.842;2023-06-04T06:57:29;443.50;;;416.45;;
46765;SDS011;32527;51.986;5.842;2023-06-04T06:59:55;450.45;;;422.77;;
46765;SDS011;32527;51.986;5.842;2023-06-04T07:02:21;428.05;;;402.52;;
46765;SDS011;32527;51.986;5.842;2023-06-04T07:04:48;434.48;;;408.08;;
46765;SDS011;32527;51.986;5.842;2023-06-04T07:07:13;441.70;;;414.77;;
46765;SDS011;32527;51.986;5.842;2023-06-04T07:09:39;409.75;;;385.33;;
46765;SDS011;32527;51.986;5.842;2023-06-04T07:12:05;408.75;;;384.73;;
46765;SDS011;32527;51.986;5.842;2023-06-04T07:14:31;426.35;;;400.83;;
46765;SDS011;32527;51.986;5.842;2023-06-04T07:16:57;402.70;;;379.02;;
46765;SDS011;32527;51.986;5.842;2023-06-04T07:19:23;398.80;;;375.42;;
46765;SDS011;32527;51.986;5.842;2023-06-04T07:21:50;417.55;;;392.85;;
46765;SDS011;32527;51.986;5.842;2023-06-04T07:24:16;399.25;;;375.13;;
46765;SDS011;32527;51.986;5.842;2023-06-04T07:26:42;411.83;;;387.33;;
46765;SDS011;32527;51.986;5.842;2023-06-04T07:29:08;417.45;;;392.58;;
46765;SDS011;32527;51.986;5.842;2023-06-04T07:31:33;404.45;;;380.77;;
46765;SDS011;32527;51.986;5.842;2023-06-04T07:33:59;403.42;;;379.55;;
46765;SDS011;32527;51.986;5.842;2023-06-04T07:36:25;400.80;;;377.15;;
46765;SDS011;32527;51.986;5.842;2023-06-04T07:38:52;400.95;;;377.65;;
46765;SDS011;32527;51.986;5.842;2023-06-04T07:41:18;388.92;;;366.20;;
46765;SDS011;32527;51.986;5.842;2023-06-04T07:43:44;382.95;;;359.90;;
46765;SDS011;32527;51.986;5.842;2023-06-04T07:46:10;416.75;;;391.90;;
46765;SDS011;32527;51.986;5.842;2023-06-04T07:48:36;377.50;;;355.35;;
46765;SDS011;32527;51.986;5.842;2023-06-04T07:51:02;384.00;;;361.58;;
46765;SDS011;32527;51.986;5.842;2023-06-04T07:53:29;384.35;;;362.17;;
46765;SDS011;32527;51.986;5.842;2023-06-04T07:55:56;377.48;;;355.60;;
46765;SDS011;32527;51.986;5.842;2023-06-04T07:58:22;389.45;;;366.60;;
46765;SDS011;32527;51.986;5.842;2023-06-04T08:00:48;375.63;;;354.08;;
46765;SDS011;32527;51.986;5.842;2023-06-04T08:03:14;374.27;;;352.67;;
46765;SDS011;32527;51.986;5.842;2023-06-04T08:05:40;388.58;;;365.60;;
46765;SDS011;32527;51.986;5.842;2023-06-04T08:08:06;353.88;;;332.60;;
46765;SDS011;32527;51.986;5.842;2023-06-04T08:10:33;355.08;;;334.40;;
46765;SDS011;32527;51.986;5.842;2023-06-04T08:12:59;355.90;;;334.80;;
46765;SDS011;32527;51.986;5.842;2023-06-04T08:15:25;374.05;;;352.70;;
46765;SDS011;32527;51.986;5.842;2023-06-04T08:17:51;372.25;;;350.35;;
46765;SDS011;32527;51.986;5.842;2023-06-04T08:20:17;359.38;;;338.35;;
46765;SDS011;32527;51.986;5.842;2023-06-04T08:22:43;357.20;;;336.30;;
46765;SDS011;32527;51.986;5.842;2023-06-04T08:25:09;340.92;;;321.35;;
46765;SDS011;32527;51.986;5.842;2023-06-04T08:27:35;367.60;;;345.60;;
46765;SDS011;32527;51.986;5.842;2023-06-04T08:30:01;336.42;;;317.35;;
46765;SDS011;32527;51.986;5.842;2023-06-04T08:32:27;342.67;;;322.55;;
46765;SDS011;32527;51.986;5.842;2023-06-04T08:34:54;336.17;;;316.63;;
46765;SDS011;32527;51.986;5.842;2023-06-04T08:37:19;327.23;;;308.67;;
46765;SDS011;32527;51.986;5.842;2023-06-04T08:39:45;313.13;;;295.30;;
46765;SDS011;32527;51.986;5.842;2023-06-04T08:42:31;322.73;;;304.02;;
46765;SDS011;32527;51.986;5.842;2023-06-04T08:44:59;317.58;;;299.63;;
46765;SDS011;32527;51.986;5.842;2023-06-04T08:47:26;313.33;;;295.38;;
46765;SDS011;32527;51.986;5.842;2023-06-04T08:49:55;300.13;;;282.73;;
46765;SDS011;32527;51.986;5.842;2023-06-04T08:52:28;309.92;;;292.48;;
46765;SDS011;32527;51.986;5.842;2023-06-04T08:54:54;320.15;;;301.90;;
46765;SDS011;32527;51.986;5.842;2023-06-04T08:57:22;299.33;;;282.35;;
46765;SDS011;32527;51.986;5.842;2023-06-04T08:59:48;303.35;;;285.90;;
46765;SDS011;32527;51.986;5.842;2023-06-04T09:02:14;300.60;;;283.52;;
46765;SDS011;32527;51.986;5.842;2023-06-04T09:04:40;319.20;;;300.73;;
46765;SDS011;32527;51.986;5.842;2023-06-04T09:07:06;301.45;;;284.20;;
46765;SDS011;32527;51.986;5.842;2023-06-04T09:09:36;284.55;;;267.83;;
46765;SDS011;32527;51.986;5.842;2023-06-04T09:12:05;297.63;;;280.25;;
46765;SDS011;32527;51.986;5.842;2023-06-04T09:14:36;276.27;;;260.15;;
46765;SDS011;32527;51.986;5.842;2023-06-04T09:17:02;283.73;;;267.42;;
46765;SDS011;32527;51.986;5.842;2023-06-04T09:19:27;274.20;;;258.02;;
46765;SDS011;32527;51.986;5.842;2023-06-04T09:21:54;255.55;;;241.00;;
46765;SDS011;32527;51.986;5.842;2023-06-04T09:24:21;251.98;;;238.35;;
46765;SDS011;32527;51.986;5.842;2023-06-04T09:26:49;257.27;;;243.13;;
46765;SDS011;32527;51.986;5.842;2023-06-04T09:29:15;267.60;;;252.40;;
46765;SDS011;32527;51.986;5.842;2023-06-04T09:31:44;275.85;;;260.42;;
46765;SDS011;32527;51.986;5.842;2023-06-04T09:34:12;265.40;;;249.18;;
46765;SDS011;32527;51.986;5.842;2023-06-04T09:36:38;256.27;;;241.73;;
46765;SDS011;32527;51.986;5.842;2023-06-04T09:39:25;253.10;;;238.57;;
46765;SDS011;32527;51.986;5.842;2023-06-04T09:41:57;268.23;;;252.85;;
46765;SDS011;32527;51.986;5.842;2023-06-04T09:44:24;250.70;;;236.05;;
46765;SDS011;32527;51.986;5.842;2023-06-04T09:46:56;281.95;;;265.35;;
46765;SDS011;32527;51.986;5.842;2023-06-04T09:49:23;253.82;;;238.95;;
46765;SDS011;32527;51.986;5.842;2023-06-04T09:51:49;246.10;;;232.45;;
46765;SDS011;32527;51.986;5.842;2023-06-04T09:54:15;264.70;;;249.65;;
46765;SDS011;32527;51.986;5.842;2023-06-04T09:56:41;243.20;;;229.07;;
46765;SDS011;32527;51.986;5.842;2023-06-04T09:59:10;239.95;;;226.13;;
46765;SDS011;32527;51.986;5.842;2023-06-04T10:01:39;242.75;;;228.50;;
46765;SDS011;32527;51.986;5.842;2023-06-04T10:04:08;251.48;;;236.90;;
46765;SDS011;32527;51.986;5.842;2023-06-04T10:06:37;246.43;;;232.02;;
46765;SDS011;32527;51.986;5.842;2023-06-04T10:09:04;248.65;;;234.02;;
46765;SDS011;32527;51.986;5.842;2023-06-04T10:11:34;270.08;;;253.20;;
46765;SDS011;32527;51.986;5.842;2023-06-04T10:16:27;228.40;;;214.85;;
46765;SDS011;32527;51.986;5.842;2023-06-04T10:18:55;246.73;;;232.05;;
46765;SDS011;32527;51.986;5.842;2023-06-04T10:21:21;226.10;;;213.02;;
46765;SDS011;32527;51.986;5.842;2023-06-04T10:23:48;237.52;;;222.98;;
46765;SDS011;32527;51.986;5.842;2023-06-04T10:26:14;239.40;;;225.73;;
46765;SDS011;32527;51.986;5.842;2023-06-04T10:28:41;272.55;;;255.48;;
46765;SDS011;32527;51.986;5.842;2023-06-04T10:31:11;222.48;;;209.48;;
46765;SDS011;32527;51.986;5.842;2023-06-04T10:33:37;237.38;;;223.45;;
46765;SDS011;32527;51.986;5.842;2023-06-04T10:36:16;234.82;;;220.75;;
46765;SDS011;32527;51.986;5.842;2023-06-04T10:38:50;233.82;;;220.13;;
46765;SDS011;32527;51.986;5.842;2023-06-04T10:41:17;230.55;;;217.07;;
46765;SDS011;32527;51.986;5.842;2023-06-04T10:43:47;249.38;;;233.43;;
46765;SDS011;32527;51.986;5.842;2023-06-04T10:46:18;239.65;;;225.30;;
46765;SDS011;32527;51.986;5.842;2023-06-04T10:48:48;217.15;;;204.40;;
46765;SDS011;32527;51.986;5.842;2023-06-04T10:53:59;199.65;;;187.85;;
46765;SDS011;32527;51.986;5.842;2023-06-04T10:56:33;223.07;;;210.13;;
46765;SDS011;32527;51.986;5.842;2023-06-04T10:59:15;212.27;;;199.75;;
46765;SDS011;32527;51.986;5.842;2023-06-04T11:01:43;214.52;;;201.40;;
46765;SDS011;32527;51.986;5.842;2023-06-04T11:04:22;250.60;;;235.60;;
46765;SDS011;32527;51.986;5.842;2023-06-04T11:07:10;205.30;;;193.50;;
46765;SDS011;32527;51.986;5.842;2023-06-04T11:09:35;212.27;;;200.20;;
46765;SDS011;32527;51.986;5.842;2023-06-04T11:12:03;235.02;;;221.30;;
46765;SDS011;32527;51.986;5.842;2023-06-04T11:14:30;246.00;;;230.75;;
46765;SDS011;32527;51.986;5.842;2023-06-04T11:16:56;229.18;;;215.85;;
46765;SDS011;32527;51.986;5.842;2023-06-04T11:19:22;237.05;;;223.05;;
46765;SDS011;32527;51.986;5.842;2023-06-04T11:21:49;220.65;;;207.55;;
46765;SDS011;32527;51.986;5.842;2023-06-04T11:24:18;239.57;;;225.25;;
46765;SDS011;32527;51.986;5.842;2023-06-04T11:26:44;227.55;;;213.68;;
46765;SDS011;32527;51.986;5.842;2023-06-04T11:29:11;237.80;;;223.90;;
46765;SDS011;32527;51.986;5.842;2023-06-04T11:31:44;242.07;;;227.98;;
46765;SDS011;32527;51.986;5.842;2023-06-04T11:34:27;236.85;;;222.80;;
46765;SDS011;32527;51.986;5.842;2023-06-04T11:36:53;234.27;;;220.40;;
46765;SDS011;32527;51.986;5.842;2023-06-04T11:39:20;245.73;;;231.48;;
46765;SDS011;32527;51.986;5.842;2023-06-04T11:41:47;230.68;;;216.93;;
46765;SDS011;32527;51.986;5.842;2023-06-04T11:44:13;258.35;;;242.57;;
46765;SDS011;32527;51.986;5.842;2023-06-04T11:46:40;223.18;;;209.63;;
46765;SDS011;32527;51.986;5.842;2023-06-04T11:49:08;258.05;;;242.38;;
46765;SDS011;32527;51.986;5.842;2023-06-04T11:51:37;255.52;;;240.80;;
46765;SDS011;32527;51.986;5.842;2023-06-04T11:54:03;246.02;;;231.65;;
46765;SDS011;32527;51.986;5.842;2023-06-04T11:56:29;231.60;;;217.90;;
46765;SDS011;32527;51.986;5.842;2023-06-04T11:58:55;191.30;;;179.85;;
46765;SDS011;32527;51.986;5.842;2023-06-04T12:01:21;169.43;;;159.10;;
46765;SDS011;32527;51.986;5.842;2023-06-04T12:03:48;185.93;;;174.68;;
46765;SDS011;32527;51.986;5.842;2023-06-04T12:06:17;207.05;;;194.05;;
46765;SDS011;32527;51.986;5.842;2023-06-04T12:08:45;204.48;;;192.15;;
46765;SDS011;32527;51.986;5.842;2023-06-04T12:13:57;277.13;;;259.10;;
46765;SDS011;32527;51.986;5.842;2023-06-04T12:16:26;336.00;;;313.20;;
46765;SDS011;32527;51.986;5.842;2023-06-04T12:18:52;298.92;;;279.15;;
46765;SDS011;32527;51.986;5.842;2023-06-04T12:21:33;326.42;;;304.35;;
46765;SDS011;32527;51.986;5.842;2023-06-04T12:24:08;292.77;;;273.38;;
46765;SDS011;32527;51.986;5.842;2023-06-04T12:26:35;343.95;;;320.30;;
46765;SDS011;32527;51.986;5.842;2023-06-04T12:31:42;346.50;;;323.25;;
46765;SDS011;32527;51.986;5.842;2023-06-04T12:34:10;345.40;;;322.83;;
46765;SDS011;32527;51.986;5.842;2023-06-04T12:36:38;354.50;;;330.42;;
46765;SDS011;32527;51.986;5.842;2023-06-04T12:39:04;362.10;;;336.23;;
46765;SDS011;32527;51.986;5.842;2023-06-04T12:41:30;354.40;;;330.35;;
46765;SDS011;32527;51.986;5.842;2023-06-04T12:43:58;355.70;;;331.70;;
46765;SDS011;32527;51.986;5.842;2023-06-04T12:46:25;379.63;;;353.08;;
46765;SDS011;32527;51.986;5.842;2023-06-04T12:48:51;369.48;;;344.25;;
46765;SDS011;32527;51.986;5.842;2023-06-04T12:51:17;314.35;;;293.33;;
46765;SDS011;32527;51.986;5.842;2023-06-04T12:53:43;324.23;;;302.45;;
46765;SDS011;32527;51.986;5.842;2023-06-04T12:56:09;335.50;;;313.10;;
46765;SDS011;32527;51.986;5.842;2023-06-04T12:58:35;314.45;;;293.20;;
46765;SDS011;32527;51.986;5.842;2023-06-04T13:01:02;384.40;;;356.95;;
46765;SDS011;32527;51.986;5.842;2023-06-04T13:03:32;359.10;;;333.83;;
46765;SDS011;32527;51.986;5.842;2023-06-04T13:06:01;402.23;;;373.55;;
46765;SDS011;32527;51.986;5.842;2023-06-04T13:08:27;347.60;;;322.90;;
46765;SDS011;32527;51.986;5.842;2023-06-04T13:10:53;370.05;;;344.25;;
46765;SDS011;32527;51.986;5.842;2023-06-04T13:13:19;351.52;;;328.42;;
46765;SDS011;32527;51.986;5.842;2023-06-04T13:15:45;362.88;;;337.55;;
46765;SDS011;32527;51.986;5.842;2023-06-04T13:18:11;342.10;;;320.00;;
46765;SDS011;32527;51.986;5.842;2023-06-04T13:20:37;376.40;;;349.95;;
46765;SDS011;32527;51.986;5.842;2023-06-04T13:23:05;366.45;;;341.00;;
46765;SDS011;32527;51.986;5.842;2023-06-04T13:25:31;394.70;;;367.25;;
46765;SDS011;32527;51.986;5.842;2023-06-04T13:28:04;365.65;;;339.92;;
46765;SDS011;32527;51.986;5.842;2023-06-04T13:30:30;354.67;;;330.95;;
46765;SDS011;32527;51.986;5.842;2023-06-04T13:32:56;341.48;;;318.58;;
46765;SDS011;32527;51.986;5.842;2023-06-04T13:35:25;322.52;;;301.40;;
46765;SDS011;32527;51.986;5.842;2023-06-04T13:37:51;292.65;;;273.52;;
46765;SDS011;32527;51.986;5.842;2023-06-04T13:40:17;313.23;;;292.35;;
46765;SDS011;32527;51.986;5.842;2023-06-04T13:42:43;287.40;;;269.05;;
46765;SDS011;32527;51.986;5.842;2023-06-04T13:45:09;294.67;;;274.55;;
46765;SDS011;32527;51.986;5.842;2023-06-04T13:47:35;298.25;;;278.92;;
46765;SDS011;32527;51.986;5.842;2023-06-04T13:50:01;277.38;;;259.08;;
46765;SDS011;32527;51.986;5.842;2023-06-04T13:52:27;278.98;;;261.13;;
46765;SDS011;32527;51.986;5.842;2023-06-04T13:54:55;280.63;;;262.42;;
46765;SDS011;32527;51.986;5.842;2023-06-04T13:57:24;270.02;;;252.80;;
46765;SDS011;32527;51.986;5.842;2023-06-04T13:59:50;307.30;;;287.20;;
46765;SDS011;32527;51.986;5.842;2023-06-04T14:02:16;288.58;;;269.88;;
46765;SDS011;32527;51.986;5.842;2023-06-04T14:04:42;281.52;;;263.45;;
46765;SDS011;32527;51.986;5.842;2023-06-04T14:07:08;314.58;;;293.25;;
46765;SDS011;32527;51.986;5.842;2023-06-04T14:09:34;297.27;;;278.33;;
46765;SDS011;32527;51.986;5.842;2023-06-04T14:12:01;350.73;;;327.35;;
46765;SDS011;32527;51.986;5.842;2023-06-04T14:14:27;304.20;;;285.10;;
46765;SDS011;32527;51.986;5.842;2023-06-04T14:17:01;300.08;;;280.80;;
46765;SDS011;32527;51.986;5.842;2023-06-04T14:19:27;314.88;;;294.02;;
46765;SDS011;32527;51.986;5.842;2023-06-04T14:21:53;299.33;;;279.83;;
46765;SDS011;32527;51.986;5.842;2023-06-04T14:24:19;326.40;;;304.73;;
46765;SDS011;32527;51.986;5.842;2023-06-04T14:26:45;327.95;;;305.95;;